sensor_id;sensor_type;location;lat;lon;timestamp;P1;durP1;ratioP1;P2;durP2;ratioP2
27163;SDS011;14685;50.618;7.024;2022-11-23T00:00:44;7.40;;;1.90;;
27163;SDS011;14685;50.618;7.024;2022-11-23T00:03:14;6.93;;;1.77;;
27163;SDS011;14685;50.618;7.024;2022-11-23T00:05:42;5.88;;;1.83;;
27163;SDS011;14685;50.618;7.024;2022-11-23T00:08:09;7.32;;;1.85;;
27163;SDS011;14685;50.618;7.024;2022-11-23T00:10:37;5.30;;;1.40;;
27163;SDS011;14685;50.618;7.024;2022-11-23T00:13:07;7.95;;;1.50;;
27163;SDS011;14685;50.618;7.024;2022-11-23T00:15:34;6.65;;;1.85;;
27163;SDS011;14685;50.618;7.024;2022-11-23T00:18:00;7.60;;;1.60;;
27163;SDS011;14685;50.618;7.024;2022-11-23T00:20:30;6.63;;;1.90;;
27163;SDS011;14685;50.618;7.024;2022-11-23T00:22:57;7.25;;;1.63;;
27163;SDS011;14685;50.618;7.024;2022-11-23T00:25:25;9.43;;;1.38;;
27163;SDS011;14685;50.618;7.024;2022-11-23T00:27:52;9.80;;;1.67;;
27163;SDS011;14685;50.618;7.024;2022-11-23T00:30:19;6.38;;;1.50;;
27163;SDS011;14685;50.618;7.024;2022-11-23T00:32:49;8.65;;;1.60;;
27163;SDS011;14685;50.618;7.024;2022-11-23T00:35:18;5.90;;;1.70;;
27163;SDS011;14685;50.618;7.024;2022-11-23T00:37:46;6.80;;;1.50;;
27163;SDS011;14685;50.618;7.024;2022-11-23T00:40:13;6.05;;;1.48;;
27163;SDS011;14685;50.618;7.024;2022-11-23T00:42:41;7.30;;;1.52;;
27163;SDS011;14685;50.618;7.024;2022-11-23T00:45:07;3.10;;;1.35;;
27163;SDS011;14685;50.618;7.024;2022-11-23T00:47:34;4.60;;;1.40;;
27163;SDS011;14685;50.618;7.024;2022-11-23T00:50:01;7.40;;;1.67;;
27163;SDS011;14685;50.618;7.024;2022-11-23T00:52:28;5.65;;;1.40;;
27163;SDS011;14685;50.618;7.024;2022-11-23T00:54:55;5.22;;;1.58;;
27163;SDS011;14685;50.618;7.024;2022-11-23T00:57:22;7.35;;;1.52;;
27163;SDS011;14685;50.618;7.024;2022-11-23T00:59:48;3.25;;;1.40;;
27163;SDS011;14685;50.618;7.024;2022-11-23T01:02:15;4.20;;;1.05;;
27163;SDS011;14685;50.618;7.024;2022-11-23T01:04:42;6.85;;;1.30;;
27163;SDS011;14685;50.618;7.024;2022-11-23T01:07:08;5.78;;;1.35;;
27163;SDS011;14685;50.618;7.024;2022-11-23T01:09:36;5.78;;;1.63;;
27163;SDS011;14685;50.618;7.024;2022-11-23T01:12:03;6.10;;;1.85;;
27163;SDS011;14685;50.618;7.024;2022-11-23T01:14:30;6.60;;;1.25;;
27163;SDS011;14685;50.618;7.024;2022-11-23T01:16:56;5.38;;;1.30;;
27163;SDS011;14685;50.618;7.024;2022-11-23T01:19:25;4.45;;;1.42;;
27163;SDS011;14685;50.618;7.024;2022-11-23T01:21:52;4.45;;;1.20;;
27163;SDS011;14685;50.618;7.024;2022-11-23T01:24:20;5.05;;;1.60;;
27163;SDS011;14685;50.618;7.024;2022-11-23T01:26:51;5.22;;;1.05;;
27163;SDS011;14685;50.618;7.024;2022-11-23T01:29:20;3.60;;;1.17;;
27163;SDS011;14685;50.618;7.024;2022-11-23T01:31:48;5.60;;;1.20;;
27163;SDS011;14685;50.618;7.024;2022-11-23T01:34:15;3.75;;;1.38;;
27163;SDS011;14685;50.618;7.024;2022-11-23T01:36:42;6.78;;;1.10;;
27163;SDS011;14685;50.618;7.024;2022-11-23T01:39:09;4.45;;;1.30;;
27163;SDS011;14685;50.618;7.024;2022-11-23T01:41:39;5.82;;;1.40;;
27163;SDS011;14685;50.618;7.024;2022-11-23T01:47:01;9.73;;;1.80;;
27163;SDS011;14685;50.618;7.024;2022-11-23T01:49:38;6.50;;;1.23;;
27163;SDS011;14685;50.618;7.024;2022-11-23T01:52:09;4.88;;;1.20;;
27163;SDS011;14685;50.618;7.024;2022-11-23T01:54:42;3.88;;;1.38;;
27163;SDS011;14685;50.618;7.024;2022-11-23T01:57:18;7.68;;;1.73;;
27163;SDS011;14685;50.618;7.024;2022-11-23T01:59:48;5.53;;;1.50;;
27163;SDS011;14685;50.618;7.024;2022-11-23T02:02:15;6.10;;;1.63;;
27163;SDS011;14685;50.618;7.024;2022-11-23T02:04:45;9.10;;;2.47;;
27163;SDS011;14685;50.618;7.024;2022-11-23T02:07:15;7.00;;;1.55;;
27163;SDS011;14685;50.618;7.024;2022-11-23T02:09:44;6.50;;;1.80;;
27163;SDS011;14685;50.618;7.024;2022-11-23T02:12:12;5.07;;;1.52;;
27163;SDS011;14685;50.618;7.024;2022-11-23T02:14:40;7.20;;;1.95;;
27163;SDS011;14685;50.618;7.024;2022-11-23T02:17:07;7.47;;;2.00;;
27163;SDS011;14685;50.618;7.024;2022-11-23T02:22:28;9.63;;;2.03;;
27163;SDS011;14685;50.618;7.024;2022-11-23T02:25:59;8.35;;;2.03;;
27163;SDS011;14685;50.618;7.024;2022-11-23T02:28:10;7.65;;;1.60;;
27163;SDS011;14685;50.618;7.024;2022-11-23T02:30:40;6.95;;;1.70;;
27163;SDS011;14685;50.618;7.024;2022-11-23T02:33:08;6.93;;;1.83;;
27163;SDS011;14685;50.618;7.024;2022-11-23T02:35:35;8.57;;;2.08;;
27163;SDS011;14685;50.618;7.024;2022-11-23T02:38:13;15.20;;;3.17;;
27163;SDS011;14685;50.618;7.024;2022-11-23T02:40:40;4.78;;;1.75;;
27163;SDS011;14685;50.618;7.024;2022-11-23T02:43:06;7.82;;;2.00;;
27163;SDS011;14685;50.618;7.024;2022-11-23T02:48:09;9.95;;;1.77;;
27163;SDS011;14685;50.618;7.024;2022-11-23T02:50:36;4.30;;;1.42;;
27163;SDS011;14685;50.618;7.024;2022-11-23T02:53:03;9.38;;;2.38;;
27163;SDS011;14685;50.618;7.024;2022-11-23T02:55:32;8.95;;;1.77;;
27163;SDS011;14685;50.618;7.024;2022-11-23T02:58:00;9.02;;;1.65;;
27163;SDS011;14685;50.618;7.024;2022-11-23T03:00:27;6.10;;;1.80;;
27163;SDS011;14685;50.618;7.024;2022-11-23T03:02:54;10.10;;;1.60;;
27163;SDS011;14685;50.618;7.024;2022-11-23T03:05:21;6.63;;;1.55;;
27163;SDS011;14685;50.618;7.024;2022-11-23T03:07:49;5.97;;;1.55;;
27163;SDS011;14685;50.618;7.024;2022-11-23T03:10:16;4.90;;;1.70;;
27163;SDS011;14685;50.618;7.024;2022-11-23T03:12:43;8.32;;;2.17;;
27163;SDS011;14685;50.618;7.024;2022-11-23T03:15:10;6.72;;;1.95;;
27163;SDS011;14685;50.618;7.024;2022-11-23T03:17:39;8.48;;;1.92;;
27163;SDS011;14685;50.618;7.024;2022-11-23T03:20:06;7.15;;;1.58;;
27163;SDS011;14685;50.618;7.024;2022-11-23T03:22:33;4.70;;;1.88;;
27163;SDS011;14685;50.618;7.024;2022-11-23T03:25:00;3.83;;;1.33;;
27163;SDS011;14685;50.618;7.024;2022-11-23T03:27:28;5.85;;;2.03;;
27163;SDS011;14685;50.618;7.024;2022-11-23T03:29:58;5.90;;;1.40;;
27163;SDS011;14685;50.618;7.024;2022-11-23T03:32:25;7.60;;;1.80;;
27163;SDS011;14685;50.618;7.024;2022-11-23T03:34:51;8.35;;;1.50;;
27163;SDS011;14685;50.618;7.024;2022-11-23T03:37:18;7.28;;;1.80;;
27163;SDS011;14685;50.618;7.024;2022-11-23T03:39:45;6.60;;;1.60;;
27163;SDS011;14685;50.618;7.024;2022-11-23T03:42:12;8.73;;;1.58;;
27163;SDS011;14685;50.618;7.024;2022-11-23T03:44:39;9.90;;;2.00;;
27163;SDS011;14685;50.618;7.024;2022-11-23T03:47:06;6.68;;;1.67;;
27163;SDS011;14685;50.618;7.024;2022-11-23T03:49:35;7.43;;;1.60;;
27163;SDS011;14685;50.618;7.024;2022-11-23T03:52:06;6.93;;;1.85;;
27163;SDS011;14685;50.618;7.024;2022-11-23T03:54:33;10.02;;;1.90;;
27163;SDS011;14685;50.618;7.024;2022-11-23T03:56:59;7.07;;;1.65;;
27163;SDS011;14685;50.618;7.024;2022-11-23T03:59:26;9.30;;;1.67;;
27163;SDS011;14685;50.618;7.024;2022-11-23T04:01:53;9.18;;;1.52;;
27163;SDS011;14685;50.618;7.024;2022-11-23T04:04:20;6.18;;;1.23;;
27163;SDS011;14685;50.618;7.024;2022-11-23T04:06:46;7.60;;;1.80;;
27163;SDS011;14685;50.618;7.024;2022-11-23T04:09:13;4.35;;;1.42;;
27163;SDS011;14685;50.618;7.024;2022-11-23T04:11:40;5.70;;;1.30;;
27163;SDS011;14685;50.618;7.024;2022-11-23T04:14:07;8.95;;;1.45;;
27163;SDS011;14685;50.618;7.024;2022-11-23T04:16:34;4.13;;;1.33;;
27163;SDS011;14685;50.618;7.024;2022-11-23T04:19:01;7.60;;;1.70;;
27163;SDS011;14685;50.618;7.024;2022-11-23T04:21:28;5.65;;;1.38;;
27163;SDS011;14685;50.618;7.024;2022-11-23T04:23:55;6.10;;;1.33;;
27163;SDS011;14685;50.618;7.024;2022-11-23T04:26:21;6.65;;;1.38;;
27163;SDS011;14685;50.618;7.024;2022-11-23T04:28:48;6.82;;;1.58;;
27163;SDS011;14685;50.618;7.024;2022-11-23T04:31:15;6.22;;;1.50;;
27163;SDS011;14685;50.618;7.024;2022-11-23T04:33:42;5.13;;;1.65;;
27163;SDS011;14685;50.618;7.024;2022-11-23T04:36:08;6.03;;;1.30;;
27163;SDS011;14685;50.618;7.024;2022-11-23T04:38:35;7.28;;;1.40;;
27163;SDS011;14685;50.618;7.024;2022-11-23T04:41:02;8.20;;;1.42;;
27163;SDS011;14685;50.618;7.024;2022-11-23T04:43:29;9.38;;;1.50;;
27163;SDS011;14685;50.618;7.024;2022-11-23T04:45:57;12.23;;;1.58;;
27163;SDS011;14685;50.618;7.024;2022-11-23T04:48:23;8.50;;;1.50;;
27163;SDS011;14685;50.618;7.024;2022-11-23T04:50:50;7.57;;;1.80;;
27163;SDS011;14685;50.618;7.024;2022-11-23T04:53:20;7.20;;;1.55;;
27163;SDS011;14685;50.618;7.024;2022-11-23T04:55:47;6.88;;;1.70;;
27163;SDS011;14685;50.618;7.024;2022-11-23T04:58:14;5.03;;;1.85;;
27163;SDS011;14685;50.618;7.024;2022-11-23T05:00:41;6.80;;;1.50;;
27163;SDS011;14685;50.618;7.024;2022-11-23T05:03:08;5.30;;;1.83;;
27163;SDS011;14685;50.618;7.024;2022-11-23T05:05:38;6.82;;;1.42;;
27163;SDS011;14685;50.618;7.024;2022-11-23T05:08:06;6.05;;;1.73;;
27163;SDS011;14685;50.618;7.024;2022-11-23T05:10:33;9.43;;;1.90;;
27163;SDS011;14685;50.618;7.024;2022-11-23T05:13:01;6.78;;;1.40;;
27163;SDS011;14685;50.618;7.024;2022-11-23T05:15:29;8.68;;;2.05;;
27163;SDS011;14685;50.618;7.024;2022-11-23T05:17:59;8.57;;;2.00;;
27163;SDS011;14685;50.618;7.024;2022-11-23T05:20:31;8.77;;;1.73;;
27163;SDS011;14685;50.618;7.024;2022-11-23T05:22:59;8.18;;;2.30;;
27163;SDS011;14685;50.618;7.024;2022-11-23T05:25:26;11.35;;;1.90;;
27163;SDS011;14685;50.618;7.024;2022-11-23T05:27:53;9.25;;;2.00;;
27163;SDS011;14685;50.618;7.024;2022-11-23T05:30:20;8.52;;;1.73;;
27163;SDS011;14685;50.618;7.024;2022-11-23T05:32:47;6.60;;;1.88;;
27163;SDS011;14685;50.618;7.024;2022-11-23T05:35:14;7.82;;;2.17;;
27163;SDS011;14685;50.618;7.024;2022-11-23T05:37:41;8.32;;;1.98;;
27163;SDS011;14685;50.618;7.024;2022-11-23T05:40:08;5.65;;;1.75;;
27163;SDS011;14685;50.618;7.024;2022-11-23T05:42:36;9.55;;;1.85;;
27163;SDS011;14685;50.618;7.024;2022-11-23T05:45:02;3.95;;;1.40;;
27163;SDS011;14685;50.618;7.024;2022-11-23T05:47:36;6.32;;;1.90;;
27163;SDS011;14685;50.618;7.024;2022-11-23T05:50:03;7.25;;;1.50;;
27163;SDS011;14685;50.618;7.024;2022-11-23T05:52:31;7.78;;;2.00;;
27163;SDS011;14685;50.618;7.024;2022-11-23T05:55:13;7.65;;;1.70;;
27163;SDS011;14685;50.618;7.024;2022-11-23T05:57:40;10.27;;;2.03;;
27163;SDS011;14685;50.618;7.024;2022-11-23T06:00:07;9.23;;;2.10;;
27163;SDS011;14685;50.618;7.024;2022-11-23T06:02:38;7.80;;;2.17;;
27163;SDS011;14685;50.618;7.024;2022-11-23T06:05:07;8.10;;;1.77;;
27163;SDS011;14685;50.618;7.024;2022-11-23T06:07:34;12.77;;;2.40;;
27163;SDS011;14685;50.618;7.024;2022-11-23T06:10:03;9.20;;;1.75;;
27163;SDS011;14685;50.618;7.024;2022-11-23T06:12:31;11.65;;;2.55;;
27163;SDS011;14685;50.618;7.024;2022-11-23T06:14:58;7.93;;;2.05;;
27163;SDS011;14685;50.618;7.024;2022-11-23T06:17:25;8.95;;;1.90;;
27163;SDS011;14685;50.618;7.024;2022-11-23T06:19:53;7.53;;;2.00;;
27163;SDS011;14685;50.618;7.024;2022-11-23T06:22:20;14.48;;;2.35;;
27163;SDS011;14685;50.618;7.024;2022-11-23T06:24:48;6.32;;;2.15;;
27163;SDS011;14685;50.618;7.024;2022-11-23T06:27:15;10.52;;;2.00;;
27163;SDS011;14685;50.618;7.024;2022-11-23T06:29:43;13.98;;;2.22;;
27163;SDS011;14685;50.618;7.024;2022-11-23T06:32:12;11.25;;;2.08;;
27163;SDS011;14685;50.618;7.024;2022-11-23T06:34:41;9.77;;;2.13;;
27163;SDS011;14685;50.618;7.024;2022-11-23T06:37:08;13.02;;;2.53;;
27163;SDS011;14685;50.618;7.024;2022-11-23T06:39:38;4.85;;;1.73;;
27163;SDS011;14685;50.618;7.024;2022-11-23T06:42:07;5.88;;;1.80;;
27163;SDS011;14685;50.618;7.024;2022-11-23T06:44:54;7.80;;;1.98;;
27163;SDS011;14685;50.618;7.024;2022-11-23T06:47:20;11.25;;;2.67;;
27163;SDS011;14685;50.618;7.024;2022-11-23T06:49:51;10.90;;;2.58;;
27163;SDS011;14685;50.618;7.024;2022-11-23T06:52:19;13.35;;;2.58;;
27163;SDS011;14685;50.618;7.024;2022-11-23T06:54:46;7.45;;;1.60;;
27163;SDS011;14685;50.618;7.024;2022-11-23T06:57:13;8.82;;;2.00;;
27163;SDS011;14685;50.618;7.024;2022-11-23T06:59:39;8.82;;;1.98;;
27163;SDS011;14685;50.618;7.024;2022-11-23T07:02:10;12.40;;;2.45;;
27163;SDS011;14685;50.618;7.024;2022-11-23T07:04:40;12.75;;;2.63;;
27163;SDS011;14685;50.618;7.024;2022-11-23T07:07:07;10.23;;;2.47;;
27163;SDS011;14685;50.618;7.024;2022-11-23T07:09:34;9.38;;;2.35;;
27163;SDS011;14685;50.618;7.024;2022-11-23T07:12:01;8.52;;;2.42;;
27163;SDS011;14685;50.618;7.024;2022-11-23T07:14:28;9.77;;;2.05;;
27163;SDS011;14685;50.618;7.024;2022-11-23T07:16:55;7.95;;;1.73;;
27163;SDS011;14685;50.618;7.024;2022-11-23T07:19:21;9.85;;;1.80;;
27163;SDS011;14685;50.618;7.024;2022-11-23T07:21:48;15.65;;;3.65;;
27163;SDS011;14685;50.618;7.024;2022-11-23T07:24:15;8.95;;;2.33;;
27163;SDS011;14685;50.618;7.024;2022-11-23T07:26:42;10.45;;;2.58;;
27163;SDS011;14685;50.618;7.024;2022-11-23T07:29:09;10.40;;;2.42;;
27163;SDS011;14685;50.618;7.024;2022-11-23T07:31:36;12.57;;;2.90;;
27163;SDS011;14685;50.618;7.024;2022-11-23T07:34:03;13.27;;;2.80;;
27163;SDS011;14685;50.618;7.024;2022-11-23T07:36:30;8.48;;;2.22;;
27163;SDS011;14685;50.618;7.024;2022-11-23T07:38:57;11.93;;;2.58;;
27163;SDS011;14685;50.618;7.024;2022-11-23T07:41:27;12.15;;;3.65;;
27163;SDS011;14685;50.618;7.024;2022-11-23T07:43:54;10.93;;;3.03;;
27163;SDS011;14685;50.618;7.024;2022-11-23T07:46:21;8.15;;;2.33;;
27163;SDS011;14685;50.618;7.024;2022-11-23T07:48:47;12.13;;;3.03;;
27163;SDS011;14685;50.618;7.024;2022-11-23T07:51:15;10.32;;;2.83;;
27163;SDS011;14685;50.618;7.024;2022-11-23T07:53:45;13.65;;;2.90;;
27163;SDS011;14685;50.618;7.024;2022-11-23T07:56:12;10.55;;;3.08;;
27163;SDS011;14685;50.618;7.024;2022-11-23T07:58:39;14.73;;;2.80;;
27163;SDS011;14685;50.618;7.024;2022-11-23T08:01:05;14.27;;;3.17;;
27163;SDS011;14685;50.618;7.024;2022-11-23T08:03:32;7.30;;;2.70;;
27163;SDS011;14685;50.618;7.024;2022-11-23T08:06:00;13.02;;;2.50;;
27163;SDS011;14685;50.618;7.024;2022-11-23T08:08:27;12.38;;;3.13;;
27163;SDS011;14685;50.618;7.024;2022-11-23T08:10:54;12.05;;;2.60;;
27163;SDS011;14685;50.618;7.024;2022-11-23T08:13:21;17.77;;;2.95;;
27163;SDS011;14685;50.618;7.024;2022-11-23T08:15:48;14.20;;;2.75;;
27163;SDS011;14685;50.618;7.024;2022-11-23T08:18:21;14.90;;;2.97;;
27163;SDS011;14685;50.618;7.024;2022-11-23T08:20:48;10.73;;;2.35;;
27163;SDS011;14685;50.618;7.024;2022-11-23T08:23:15;13.60;;;2.45;;
27163;SDS011;14685;50.618;7.024;2022-11-23T08:25:42;7.75;;;2.50;;
27163;SDS011;14685;50.618;7.024;2022-11-23T08:28:12;13.10;;;2.28;;
27163;SDS011;14685;50.618;7.024;2022-11-23T08:30:39;11.63;;;2.58;;
27163;SDS011;14685;50.618;7.024;2022-11-23T08:33:06;10.98;;;2.60;;
27163;SDS011;14685;50.618;7.024;2022-11-23T08:35:36;12.30;;;2.35;;
27163;SDS011;14685;50.618;7.024;2022-11-23T08:38:04;15.40;;;2.65;;
27163;SDS011;14685;50.618;7.024;2022-11-23T08:40:32;16.15;;;2.50;;
27163;SDS011;14685;50.618;7.024;2022-11-23T08:43:01;10.07;;;2.60;;
27163;SDS011;14685;50.618;7.024;2022-11-23T08:45:29;12.48;;;2.53;;
27163;SDS011;14685;50.618;7.024;2022-11-23T08:47:59;14.13;;;2.35;;
27163;SDS011;14685;50.618;7.024;2022-11-23T08:50:27;16.85;;;3.17;;
27163;SDS011;14685;50.618;7.024;2022-11-23T08:52:58;14.32;;;2.55;;
27163;SDS011;14685;50.618;7.024;2022-11-23T08:55:26;18.35;;;2.38;;
27163;SDS011;14685;50.618;7.024;2022-11-23T08:57:58;9.20;;;2.30;;
27163;SDS011;14685;50.618;7.024;2022-11-23T09:00:25;18.40;;;2.33;;
27163;SDS011;14685;50.618;7.024;2022-11-23T09:02:53;13.95;;;2.63;;
27163;SDS011;14685;50.618;7.024;2022-11-23T09:05:20;14.07;;;2.78;;
27163;SDS011;14685;50.618;7.024;2022-11-23T09:07:47;8.35;;;2.13;;
27163;SDS011;14685;50.618;7.024;2022-11-23T09:10:14;14.82;;;2.50;;
27163;SDS011;14685;50.618;7.024;2022-11-23T09:12:44;17.75;;;2.85;;
27163;SDS011;14685;50.618;7.024;2022-11-23T09:15:11;15.65;;;3.22;;
27163;SDS011;14685;50.618;7.024;2022-11-23T09:17:38;9.05;;;2.15;;
27163;SDS011;14685;50.618;7.024;2022-11-23T09:20:06;14.75;;;2.50;;
27163;SDS011;14685;50.618;7.024;2022-11-23T09:22:33;18.48;;;3.10;;
27163;SDS011;14685;50.618;7.024;2022-11-23T09:25:00;21.52;;;3.35;;
27163;SDS011;14685;50.618;7.024;2022-11-23T09:27:27;13.05;;;2.65;;
27163;SDS011;14685;50.618;7.024;2022-11-23T09:29:54;13.35;;;2.58;;
27163;SDS011;14685;50.618;7.024;2022-11-23T09:32:21;11.05;;;2.58;;
27163;SDS011;14685;50.618;7.024;2022-11-23T09:34:48;12.60;;;2.60;;
27163;SDS011;14685;50.618;7.024;2022-11-23T09:37:15;9.75;;;2.08;;
27163;SDS011;14685;50.618;7.024;2022-11-23T09:39:41;11.82;;;2.17;;
27163;SDS011;14685;50.618;7.024;2022-11-23T09:44:57;12.35;;;2.40;;
27163;SDS011;14685;50.618;7.024;2022-11-23T09:47:45;13.32;;;2.42;;
27163;SDS011;14685;50.618;7.024;2022-11-23T09:50:39;12.32;;;2.88;;
27163;SDS011;14685;50.618;7.024;2022-11-23T09:53:19;13.63;;;2.40;;
27163;SDS011;14685;50.618;7.024;2022-11-23T09:55:54;12.52;;;2.40;;
27163;SDS011;14685;50.618;7.024;2022-11-23T09:58:24;11.48;;;2.45;;
27163;SDS011;14685;50.618;7.024;2022-11-23T10:01:09;14.23;;;2.83;;
27163;SDS011;14685;50.618;7.024;2022-11-23T10:03:39;13.20;;;2.58;;
27163;SDS011;14685;50.618;7.024;2022-11-23T10:09:11;17.17;;;3.10;;
27163;SDS011;14685;50.618;7.024;2022-11-23T10:12:19;12.00;;;2.55;;
27163;SDS011;14685;50.618;7.024;2022-11-23T10:15:19;6.47;;;2.05;;
27163;SDS011;14685;50.618;7.024;2022-11-23T10:23:28;12.55;;;4.90;;
27163;SDS011;14685;50.618;7.024;2022-11-23T10:26:18;11.93;;;2.35;;
27163;SDS011;14685;50.618;7.024;2022-11-23T10:28:52;11.30;;;2.67;;
27163;SDS011;14685;50.618;7.024;2022-11-23T10:31:21;9.63;;;2.35;;
27163;SDS011;14685;50.618;7.024;2022-11-23T10:36:34;9.73;;;1.75;;
27163;SDS011;14685;50.618;7.024;2022-11-23T10:39:04;12.15;;;2.20;;
27163;SDS011;14685;50.618;7.024;2022-11-23T10:41:58;10.57;;;2.42;;
27163;SDS011;14685;50.618;7.024;2022-11-23T10:44:29;7.88;;;2.45;;
27163;SDS011;14685;50.618;7.024;2022-11-23T10:46:57;11.75;;;2.30;;
27163;SDS011;14685;50.618;7.024;2022-11-23T10:49:31;9.05;;;1.88;;
27163;SDS011;14685;50.618;7.024;2022-11-23T10:52:03;12.60;;;1.98;;
27163;SDS011;14685;50.618;7.024;2022-11-23T10:57:02;9.88;;;2.22;;
27163;SDS011;14685;50.618;7.024;2022-11-23T11:02:42;7.47;;;1.45;;
27163;SDS011;14685;50.618;7.024;2022-11-23T11:08:20;5.40;;;1.55;;
27163;SDS011;14685;50.618;7.024;2022-11-23T11:11:07;11.85;;;1.80;;
27163;SDS011;14685;50.618;7.024;2022-11-23T11:13:48;10.32;;;2.10;;
27163;SDS011;14685;50.618;7.024;2022-11-23T11:18:50;8.55;;;1.95;;
27163;SDS011;14685;50.618;7.024;2022-11-23T11:21:18;9.27;;;2.10;;
27163;SDS011;14685;50.618;7.024;2022-11-23T11:23:51;12.18;;;2.58;;
27163;SDS011;14685;50.618;7.024;2022-11-23T11:26:25;5.45;;;1.52;;
27163;SDS011;14685;50.618;7.024;2022-11-23T11:28:54;8.73;;;1.80;;
27163;SDS011;14685;50.618;7.024;2022-11-23T11:31:24;11.15;;;2.03;;
27163;SDS011;14685;50.618;7.024;2022-11-23T11:39:50;12.65;;;2.85;;
27163;SDS011;14685;50.618;7.024;2022-11-23T11:42:43;12.73;;;4.40;;
27163;SDS011;14685;50.618;7.024;2022-11-23T11:45:15;7.78;;;2.25;;
27163;SDS011;14685;50.618;7.024;2022-11-23T11:47:56;9.63;;;2.35;;
27163;SDS011;14685;50.618;7.024;2022-11-23T11:50:29;5.35;;;2.03;;
27163;SDS011;14685;50.618;7.024;2022-11-23T11:53:02;7.32;;;2.10;;
27163;SDS011;14685;50.618;7.024;2022-11-23T11:55:43;8.25;;;2.28;;
27163;SDS011;14685;50.618;7.024;2022-11-23T11:58:16;7.13;;;1.80;;
27163;SDS011;14685;50.618;7.024;2022-11-23T12:00:44;6.13;;;1.70;;
27163;SDS011;14685;50.618;7.024;2022-11-23T12:06:03;9.13;;;1.92;;
27163;SDS011;14685;50.618;7.024;2022-11-23T12:08:44;7.03;;;1.50;;
27163;SDS011;14685;50.618;7.024;2022-11-23T12:11:32;9.68;;;2.35;;
27163;SDS011;14685;50.618;7.024;2022-11-23T12:14:00;4.53;;;1.45;;
27163;SDS011;14685;50.618;7.024;2022-11-23T12:19:41;6.90;;;1.67;;
27163;SDS011;14685;50.618;7.024;2022-11-23T12:22:26;8.45;;;1.92;;
27163;SDS011;14685;50.618;7.024;2022-11-23T12:25:19;7.87;;;2.17;;
27163;SDS011;14685;50.618;7.024;2022-11-23T12:34:05;8.48;;;1.90;;
27163;SDS011;14685;50.618;7.024;2022-11-23T12:42:09;5.78;;;2.25;;
27163;SDS011;14685;50.618;7.024;2022-11-23T12:47:57;8.00;;;1.90;;
27163;SDS011;14685;50.618;7.024;2022-11-23T12:55:53;5.35;;;1.88;;
27163;SDS011;14685;50.618;7.024;2022-11-23T12:58:34;7.32;;;1.80;;
27163;SDS011;14685;50.618;7.024;2022-11-23T13:01:21;6.50;;;2.30;;
27163;SDS011;14685;50.618;7.024;2022-11-23T13:10:12;4.77;;;2.13;;
27163;SDS011;14685;50.618;7.024;2022-11-23T13:13:14;10.82;;;2.22;;
27163;SDS011;14685;50.618;7.024;2022-11-23T13:15:52;4.20;;;1.98;;
27163;SDS011;14685;50.618;7.024;2022-11-23T13:18:49;8.95;;;2.30;;
27163;SDS011;14685;50.618;7.024;2022-11-23T13:21:29;7.78;;;1.88;;
27163;SDS011;14685;50.618;7.024;2022-11-23T13:24:01;6.13;;;2.13;;
27163;SDS011;14685;50.618;7.024;2022-11-23T13:26:29;4.18;;;2.35;;
27163;SDS011;14685;50.618;7.024;2022-11-23T13:28:58;5.32;;;2.22;;
27163;SDS011;14685;50.618;7.024;2022-11-23T13:31:45;7.22;;;1.90;;
27163;SDS011;14685;50.618;7.024;2022-11-23T13:37:19;8.60;;;2.50;;
27163;SDS011;14685;50.618;7.024;2022-11-23T13:42:16;5.80;;;1.60;;
27163;SDS011;14685;50.618;7.024;2022-11-23T13:44:44;6.32;;;1.92;;
27163;SDS011;14685;50.618;7.024;2022-11-23T13:49:41;5.72;;;2.30;;
27163;SDS011;14685;50.618;7.024;2022-11-23T13:54:52;5.22;;;1.60;;
27163;SDS011;14685;50.618;7.024;2022-11-23T13:57:20;6.43;;;1.83;;
27163;SDS011;14685;50.618;7.024;2022-11-23T13:59:47;4.32;;;1.50;;
27163;SDS011;14685;50.618;7.024;2022-11-23T14:02:29;8.65;;;1.70;;
27163;SDS011;14685;50.618;7.024;2022-11-23T14:05:52;7.53;;;2.00;;
27163;SDS011;14685;50.618;7.024;2022-11-23T14:08:17;6.93;;;1.98;;
27163;SDS011;14685;50.618;7.024;2022-11-23T14:10:44;6.93;;;1.80;;
27163;SDS011;14685;50.618;7.024;2022-11-23T14:13:23;5.95;;;1.73;;
27163;SDS011;14685;50.618;7.024;2022-11-23T14:15:54;3.97;;;1.35;;
27163;SDS011;14685;50.618;7.024;2022-11-23T14:18:43;8.00;;;1.98;;
27163;SDS011;14685;50.618;7.024;2022-11-23T14:21:17;5.05;;;1.40;;
27163;SDS011;14685;50.618;7.024;2022-11-23T14:26:54;7.15;;;1.50;;
27163;SDS011;14685;50.618;7.024;2022-11-23T14:33:12;6.75;;;2.00;;
27163;SDS011;14685;50.618;7.024;2022-11-23T14:41:35;8.88;;;1.77;;
27163;SDS011;14685;50.618;7.024;2022-11-23T14:44:02;5.55;;;2.17;;
27163;SDS011;14685;50.618;7.024;2022-11-23T14:46:31;7.03;;;2.17;;
27163;SDS011;14685;50.618;7.024;2022-11-23T14:49:03;5.57;;;2.20;;
27163;SDS011;14685;50.618;7.024;2022-11-23T14:51:39;5.72;;;1.95;;
27163;SDS011;14685;50.618;7.024;2022-11-23T14:54:09;6.60;;;1.83;;
27163;SDS011;14685;50.618;7.024;2022-11-23T15:07:10;5.65;;;1.92;;
27163;SDS011;14685;50.618;7.024;2022-11-23T15:12:44;6.90;;;2.05;;
27163;SDS011;14685;50.618;7.024;2022-11-23T15:15:16;8.57;;;2.30;;
27163;SDS011;14685;50.618;7.024;2022-11-23T15:18:04;9.20;;;2.30;;
27163;SDS011;14685;50.618;7.024;2022-11-23T15:20:32;6.70;;;2.53;;
27163;SDS011;14685;50.618;7.024;2022-11-23T15:23:00;7.68;;;2.70;;
27163;SDS011;14685;50.618;7.024;2022-11-23T15:25:29;4.40;;;1.80;;
27163;SDS011;14685;50.618;7.024;2022-11-23T15:27:57;8.40;;;1.98;;
27163;SDS011;14685;50.618;7.024;2022-11-23T15:30:26;6.00;;;1.80;;
27163;SDS011;14685;50.618;7.024;2022-11-23T15:35:31;6.07;;;1.60;;
27163;SDS011;14685;50.618;7.024;2022-11-23T15:38:10;4.55;;;1.70;;
27163;SDS011;14685;50.618;7.024;2022-11-23T15:40:45;4.43;;;1.77;;
27163;SDS011;14685;50.618;7.024;2022-11-23T15:43:17;9.90;;;2.13;;
27163;SDS011;14685;50.618;7.024;2022-11-23T15:49:36;8.15;;;2.40;;
27163;SDS011;14685;50.618;7.024;2022-11-23T15:52:40;11.18;;;2.08;;
27163;SDS011;14685;50.618;7.024;2022-11-23T15:55:12;9.98;;;2.20;;
27163;SDS011;14685;50.618;7.024;2022-11-23T15:58:06;7.72;;;2.83;;
27163;SDS011;14685;50.618;7.024;2022-11-23T16:01:12;9.05;;;2.85;;
27163;SDS011;14685;50.618;7.024;2022-11-23T16:04:23;7.47;;;2.47;;
27163;SDS011;14685;50.618;7.024;2022-11-23T16:07:25;7.88;;;2.15;;
27163;SDS011;14685;50.618;7.024;2022-11-23T16:13:03;6.90;;;1.88;;
27163;SDS011;14685;50.618;7.024;2022-11-23T16:20:31;7.15;;;1.90;;
27163;SDS011;14685;50.618;7.024;2022-11-23T16:22:59;6.00;;;1.63;;
27163;SDS011;14685;50.618;7.024;2022-11-23T16:25:32;8.48;;;1.80;;
27163;SDS011;14685;50.618;7.024;2022-11-23T16:30:35;9.32;;;1.92;;
27163;SDS011;14685;50.618;7.024;2022-11-23T16:33:04;3.28;;;1.50;;
27163;SDS011;14685;50.618;7.024;2022-11-23T16:35:36;3.70;;;1.70;;
27163;SDS011;14685;50.618;7.024;2022-11-23T16:38:04;5.88;;;2.10;;
27163;SDS011;14685;50.618;7.024;2022-11-23T16:40:31;4.95;;;1.60;;
27163;SDS011;14685;50.618;7.024;2022-11-23T16:42:58;4.22;;;1.70;;
27163;SDS011;14685;50.618;7.024;2022-11-23T16:45:25;5.50;;;1.80;;
27163;SDS011;14685;50.618;7.024;2022-11-23T16:48:01;9.32;;;1.75;;
27163;SDS011;14685;50.618;7.024;2022-11-23T16:50:29;8.02;;;1.90;;
27163;SDS011;14685;50.618;7.024;2022-11-23T16:52:59;3.30;;;1.60;;
27163;SDS011;14685;50.618;7.024;2022-11-23T16:55:35;7.20;;;1.38;;
27163;SDS011;14685;50.618;7.024;2022-11-23T16:58:08;4.35;;;1.60;;
27163;SDS011;14685;50.618;7.024;2022-11-23T17:00:42;3.80;;;1.70;;
27163;SDS011;14685;50.618;7.024;2022-11-23T17:03:13;3.33;;;1.77;;
27163;SDS011;14685;50.618;7.024;2022-11-23T17:05:41;4.18;;;2.63;;
27163;SDS011;14685;50.618;7.024;2022-11-23T17:08:08;3.25;;;1.80;;
27163;SDS011;14685;50.618;7.024;2022-11-23T17:10:36;4.03;;;2.03;;